KMWM

Windom Municipal Airport

Windom, Minnesota, USA
METAR KMWM 232015Z AUTO 35007KT 340V040 10SM CLR 09/M03 A3036 RMK AO2
Observed Flight Rules
Oct-23 @ 20:15 UTC (17 minutes ago) Visual Flight Rules
Wind Visibility Clouds
350° at 7 knots 10 miles
  • Clear skies
Temperatures Readings
Current 9°C / 48°F
Dewpoint -3°C / 27°F
Humidity 43%
Altimeter 30.36" Hg
Pressure 1028 hPa
Elevation 430
METAR KMWM 232015Z AUTO 35007KT 340V040 10SM CLR 09/M03 A3036 RMK AO2
Observed Flight Rules
Oct-23 @ 20:15 UTC
(17 minutes ago)
VFR
Wind Visibility
350° at 7 knots 10 miles
Clouds
  • Clear skies
Temperature Dewpoint
9°C / 48°F -3°C / 27°F
Humidity Altimeter Pressure
43% 30.36" Hg 1028 hPa